sensor_id;sensor_type;location;lat;lon;timestamp;P1;durP1;ratioP1;P2;durP2;ratioP2
76035;SDS011;64732;56.314;44.068;2023-04-20T00:02:08;5.63;;;3.35;;
76035;SDS011;64732;56.314;44.068;2023-04-20T00:04:31;9.82;;;3.35;;
76035;SDS011;64732;56.314;44.068;2023-04-20T00:06:53;7.53;;;3.58;;
76035;SDS011;64732;56.314;44.068;2023-04-20T00:09:14;7.72;;;3.45;;
76035;SDS011;64732;56.314;44.068;2023-04-20T00:11:36;6.78;;;3.60;;
76035;SDS011;64732;56.314;44.068;2023-04-20T00:13:57;9.65;;;4.10;;
76035;SDS011;64732;56.314;44.068;2023-04-20T00:16:20;8.18;;;3.65;;
76035;SDS011;64732;56.314;44.068;2023-04-20T00:18:41;6.72;;;3.83;;
76035;SDS011;64732;56.314;44.068;2023-04-20T00:21:05;6.93;;;3.50;;
76035;SDS011;64732;56.314;44.068;2023-04-20T00:23:26;8.85;;;3.92;;
76035;SDS011;64732;56.314;44.068;2023-04-20T00:25:47;7.07;;;3.90;;
76035;SDS011;64732;56.314;44.068;2023-04-20T00:28:09;6.50;;;3.70;;
76035;SDS011;64732;56.314;44.068;2023-04-20T00:30:30;8.60;;;3.88;;
76035;SDS011;64732;56.314;44.068;2023-04-20T00:32:51;13.73;;;3.53;;
76035;SDS011;64732;56.314;44.068;2023-04-20T00:35:12;5.65;;;3.35;;
76035;SDS011;64732;56.314;44.068;2023-04-20T00:37:36;8.77;;;4.60;;
76035;SDS011;64732;56.314;44.068;2023-04-20T00:39:57;9.52;;;4.15;;
76035;SDS011;64732;56.314;44.068;2023-04-20T00:42:19;7.03;;;3.35;;
76035;SDS011;64732;56.314;44.068;2023-04-20T00:44:40;7.05;;;3.70;;
76035;SDS011;64732;56.314;44.068;2023-04-20T00:47:01;10.48;;;3.90;;
76035;SDS011;64732;56.314;44.068;2023-04-20T00:49:23;9.43;;;3.75;;
76035;SDS011;64732;56.314;44.068;2023-04-20T00:51:45;6.75;;;3.97;;
76035;SDS011;64732;56.314;44.068;2023-04-20T00:54:08;7.13;;;4.00;;
76035;SDS011;64732;56.314;44.068;2023-04-20T00:56:29;10.48;;;3.95;;
76035;SDS011;64732;56.314;44.068;2023-04-20T00:58:50;8.80;;;3.63;;
76035;SDS011;64732;56.314;44.068;2023-04-20T01:01:12;8.80;;;4.30;;
76035;SDS011;64732;56.314;44.068;2023-04-20T01:03:33;8.35;;;3.35;;
76035;SDS011;64732;56.314;44.068;2023-04-20T01:05:55;8.07;;;4.60;;
76035;SDS011;64732;56.314;44.068;2023-04-20T01:08:16;8.40;;;3.72;;
76035;SDS011;64732;56.314;44.068;2023-04-20T01:10:39;9.65;;;4.25;;
76035;SDS011;64732;56.314;44.068;2023-04-20T01:13:01;9.25;;;4.28;;
76035;SDS011;64732;56.314;44.068;2023-04-20T01:15:22;7.10;;;3.95;;
76035;SDS011;64732;56.314;44.068;2023-04-20T01:17:45;7.80;;;4.07;;
76035;SDS011;64732;56.314;44.068;2023-04-20T01:20:07;10.05;;;3.97;;
76035;SDS011;64732;56.314;44.068;2023-04-20T01:22:31;7.00;;;3.50;;
76035;SDS011;64732;56.314;44.068;2023-04-20T01:24:53;7.38;;;3.95;;
76035;SDS011;64732;56.314;44.068;2023-04-20T01:27:14;7.45;;;4.18;;
76035;SDS011;64732;56.314;44.068;2023-04-20T01:29:35;8.40;;;4.32;;
76035;SDS011;64732;56.314;44.068;2023-04-20T01:31:56;8.10;;;3.78;;
76035;SDS011;64732;56.314;44.068;2023-04-20T01:34:17;6.30;;;3.70;;
76035;SDS011;64732;56.314;44.068;2023-04-20T01:36:38;7.93;;;4.07;;
76035;SDS011;64732;56.314;44.068;2023-04-20T01:39:02;8.27;;;4.40;;
76035;SDS011;64732;56.314;44.068;2023-04-20T01:41:23;9.93;;;4.30;;
76035;SDS011;64732;56.314;44.068;2023-04-20T01:43:44;9.32;;;4.07;;
76035;SDS011;64732;56.314;44.068;2023-04-20T01:46:05;9.43;;;4.18;;
76035;SDS011;64732;56.314;44.068;2023-04-20T01:48:26;7.57;;;4.18;;
76035;SDS011;64732;56.314;44.068;2023-04-20T01:50:49;8.18;;;4.28;;
76035;SDS011;64732;56.314;44.068;2023-04-20T01:53:10;10.85;;;3.95;;
76035;SDS011;64732;56.314;44.068;2023-04-20T01:55:34;8.95;;;4.65;;
76035;SDS011;64732;56.314;44.068;2023-04-20T01:57:55;10.52;;;4.47;;
76035;SDS011;64732;56.314;44.068;2023-04-20T02:00:16;10.75;;;4.50;;
76035;SDS011;64732;56.314;44.068;2023-04-20T02:02:38;9.95;;;4.40;;
76035;SDS011;64732;56.314;44.068;2023-04-20T02:04:59;12.00;;;4.70;;
76035;SDS011;64732;56.314;44.068;2023-04-20T02:07:20;10.55;;;4.70;;
76035;SDS011;64732;56.314;44.068;2023-04-20T02:09:41;10.25;;;4.97;;
76035;SDS011;64732;56.314;44.068;2023-04-20T02:12:05;12.07;;;4.70;;
76035;SDS011;64732;56.314;44.068;2023-04-20T02:14:26;10.40;;;4.43;;
76035;SDS011;64732;56.314;44.068;2023-04-20T02:16:47;9.93;;;3.95;;
76035;SDS011;64732;56.314;44.068;2023-04-20T02:19:08;9.10;;;4.18;;
76035;SDS011;64732;56.314;44.068;2023-04-20T02:21:29;10.82;;;4.38;;
76035;SDS011;64732;56.314;44.068;2023-04-20T02:23:50;9.90;;;5.03;;
76035;SDS011;64732;56.314;44.068;2023-04-20T02:26:11;8.27;;;4.03;;
76035;SDS011;64732;56.314;44.068;2023-04-20T02:28:35;8.98;;;4.03;;
76035;SDS011;64732;56.314;44.068;2023-04-20T02:30:56;8.48;;;4.40;;
76035;SDS011;64732;56.314;44.068;2023-04-20T02:33:17;12.93;;;4.50;;
76035;SDS011;64732;56.314;44.068;2023-04-20T02:35:38;16.10;;;4.78;;
76035;SDS011;64732;56.314;44.068;2023-04-20T02:37:59;9.68;;;5.07;;
76035;SDS011;64732;56.314;44.068;2023-04-20T02:40:21;8.88;;;4.40;;
76035;SDS011;64732;56.314;44.068;2023-04-20T02:42:42;8.65;;;4.97;;
76035;SDS011;64732;56.314;44.068;2023-04-20T02:45:06;10.65;;;4.80;;
76035;SDS011;64732;56.314;44.068;2023-04-20T02:47:28;10.43;;;4.97;;
76035;SDS011;64732;56.314;44.068;2023-04-20T02:49:49;11.13;;;4.68;;
76035;SDS011;64732;56.314;44.068;2023-04-20T02:52:10;9.45;;;5.10;;
76035;SDS011;64732;56.314;44.068;2023-04-20T02:54:31;9.02;;;5.65;;
76035;SDS011;64732;56.314;44.068;2023-04-20T02:56:52;11.93;;;5.40;;
76035;SDS011;64732;56.314;44.068;2023-04-20T02:59:14;15.68;;;5.43;;
76035;SDS011;64732;56.314;44.068;2023-04-20T03:01:37;12.00;;;4.55;;
76035;SDS011;64732;56.314;44.068;2023-04-20T03:03:58;9.75;;;4.28;;
76035;SDS011;64732;56.314;44.068;2023-04-20T03:06:19;11.25;;;4.53;;
76035;SDS011;64732;56.314;44.068;2023-04-20T03:08:41;10.05;;;4.78;;
76035;SDS011;64732;56.314;44.068;2023-04-20T03:11:02;9.40;;;4.18;;
76035;SDS011;64732;56.314;44.068;2023-04-20T03:13:23;12.13;;;4.72;;
76035;SDS011;64732;56.314;44.068;2023-04-20T03:15:44;10.18;;;4.93;;
76035;SDS011;64732;56.314;44.068;2023-04-20T03:18:07;12.98;;;5.53;;
76035;SDS011;64732;56.314;44.068;2023-04-20T03:20:28;14.07;;;4.95;;
76035;SDS011;64732;56.314;44.068;2023-04-20T03:22:49;12.13;;;4.90;;
76035;SDS011;64732;56.314;44.068;2023-04-20T03:25:10;13.63;;;6.18;;
76035;SDS011;64732;56.314;44.068;2023-04-20T03:27:32;9.27;;;5.10;;
76035;SDS011;64732;56.314;44.068;2023-04-20T03:29:52;15.18;;;5.35;;
76035;SDS011;64732;56.314;44.068;2023-04-20T03:32:13;12.55;;;5.32;;
76035;SDS011;64732;56.314;44.068;2023-04-20T03:34:37;10.77;;;6.28;;
76035;SDS011;64732;56.314;44.068;2023-04-20T03:36:58;12.23;;;5.88;;
76035;SDS011;64732;56.314;44.068;2023-04-20T03:39:19;12.32;;;7.63;;
76035;SDS011;64732;56.314;44.068;2023-04-20T03:41:40;15.77;;;8.30;;
76035;SDS011;64732;56.314;44.068;2023-04-20T03:44:01;15.32;;;8.85;;
76035;SDS011;64732;56.314;44.068;2023-04-20T03:46:22;14.88;;;8.10;;
76035;SDS011;64732;56.314;44.068;2023-04-20T03:48:43;14.95;;;6.70;;
76035;SDS011;64732;56.314;44.068;2023-04-20T03:51:07;12.05;;;5.50;;
76035;SDS011;64732;56.314;44.068;2023-04-20T03:53:28;12.43;;;5.10;;
76035;SDS011;64732;56.314;44.068;2023-04-20T03:55:51;13.50;;;5.20;;
76035;SDS011;64732;56.314;44.068;2023-04-20T03:58:12;11.88;;;5.28;;
76035;SDS011;64732;56.314;44.068;2023-04-20T04:00:33;10.13;;;4.97;;
76035;SDS011;64732;56.314;44.068;2023-04-20T04:02:54;18.30;;;4.65;;
76035;SDS011;64732;56.314;44.068;2023-04-20T04:05:19;12.68;;;4.80;;
76035;SDS011;64732;56.314;44.068;2023-04-20T04:07:43;13.60;;;4.18;;
76035;SDS011;64732;56.314;44.068;2023-04-20T04:10:04;13.52;;;4.57;;
76035;SDS011;64732;56.314;44.068;2023-04-20T04:12:26;11.02;;;5.32;;
76035;SDS011;64732;56.314;44.068;2023-04-20T04:14:47;11.13;;;4.93;;
76035;SDS011;64732;56.314;44.068;2023-04-20T04:17:08;10.43;;;4.30;;
76035;SDS011;64732;56.314;44.068;2023-04-20T04:19:29;8.23;;;4.25;;
76035;SDS011;64732;56.314;44.068;2023-04-20T04:21:50;10.80;;;4.55;;
76035;SDS011;64732;56.314;44.068;2023-04-20T04:24:13;12.73;;;4.40;;
76035;SDS011;64732;56.314;44.068;2023-04-20T04:26:34;10.23;;;4.70;;
76035;SDS011;64732;56.314;44.068;2023-04-20T04:28:56;9.43;;;5.15;;
76035;SDS011;64732;56.314;44.068;2023-04-20T04:31:17;9.65;;;4.22;;
76035;SDS011;64732;56.314;44.068;2023-04-20T04:33:38;9.43;;;4.30;;
76035;SDS011;64732;56.314;44.068;2023-04-20T04:36:02;20.60;;;5.47;;
76035;SDS011;64732;56.314;44.068;2023-04-20T04:38:26;16.05;;;5.32;;
76035;SDS011;64732;56.314;44.068;2023-04-20T04:40:49;10.95;;;5.35;;
76035;SDS011;64732;56.314;44.068;2023-04-20T04:43:10;13.40;;;4.50;;
76035;SDS011;64732;56.314;44.068;2023-04-20T04:45:31;10.85;;;5.25;;
76035;SDS011;64732;56.314;44.068;2023-04-20T04:47:52;9.23;;;5.13;;
76035;SDS011;64732;56.314;44.068;2023-04-20T04:50:13;9.63;;;4.75;;
76035;SDS011;64732;56.314;44.068;2023-04-20T04:52:34;14.88;;;4.60;;
76035;SDS011;64732;56.314;44.068;2023-04-20T04:54:56;8.60;;;4.82;;
76035;SDS011;64732;56.314;44.068;2023-04-20T04:57:20;10.65;;;4.30;;
76035;SDS011;64732;56.314;44.068;2023-04-20T04:59:41;8.00;;;4.32;;
76035;SDS011;64732;56.314;44.068;2023-04-20T05:02:02;7.75;;;4.28;;
76035;SDS011;64732;56.314;44.068;2023-04-20T05:04:23;8.82;;;4.38;;
76035;SDS011;64732;56.314;44.068;2023-04-20T05:06:44;8.23;;;4.00;;
76035;SDS011;64732;56.314;44.068;2023-04-20T05:09:05;8.88;;;4.78;;
76035;SDS011;64732;56.314;44.068;2023-04-20T05:11:26;14.18;;;4.10;;
76035;SDS011;64732;56.314;44.068;2023-04-20T05:13:50;11.57;;;4.38;;
76035;SDS011;64732;56.314;44.068;2023-04-20T05:16:11;14.05;;;4.43;;
76035;SDS011;64732;56.314;44.068;2023-04-20T05:18:32;14.30;;;4.30;;
76035;SDS011;64732;56.314;44.068;2023-04-20T05:20:53;8.60;;;3.80;;
76035;SDS011;64732;56.314;44.068;2023-04-20T05:23:14;7.28;;;3.85;;
76035;SDS011;64732;56.314;44.068;2023-04-20T05:25:35;7.72;;;3.95;;
76035;SDS011;64732;56.314;44.068;2023-04-20T05:27:56;6.18;;;3.58;;
76035;SDS011;64732;56.314;44.068;2023-04-20T05:30:20;8.60;;;3.53;;
76035;SDS011;64732;56.314;44.068;2023-04-20T05:32:41;9.73;;;4.20;;
76035;SDS011;64732;56.314;44.068;2023-04-20T05:35:04;6.95;;;3.90;;
76035;SDS011;64732;56.314;44.068;2023-04-20T05:37:25;7.07;;;3.70;;
76035;SDS011;64732;56.314;44.068;2023-04-20T05:39:46;7.85;;;4.35;;
76035;SDS011;64732;56.314;44.068;2023-04-20T05:42:07;11.05;;;4.43;;
76035;SDS011;64732;56.314;44.068;2023-04-20T05:44:29;8.95;;;3.70;;
76035;SDS011;64732;56.314;44.068;2023-04-20T05:46:52;8.35;;;4.22;;
76035;SDS011;64732;56.314;44.068;2023-04-20T05:49:13;7.93;;;3.67;;
76035;SDS011;64732;56.314;44.068;2023-04-20T05:51:34;12.38;;;4.00;;
76035;SDS011;64732;56.314;44.068;2023-04-20T05:53:55;13.45;;;4.13;;
76035;SDS011;64732;56.314;44.068;2023-04-20T05:56:16;8.63;;;3.92;;
76035;SDS011;64732;56.314;44.068;2023-04-20T05:58:37;13.82;;;4.47;;
76035;SDS011;64732;56.314;44.068;2023-04-20T06:00:58;10.77;;;3.80;;
76035;SDS011;64732;56.314;44.068;2023-04-20T06:03:22;9.45;;;4.28;;
76035;SDS011;64732;56.314;44.068;2023-04-20T06:05:43;10.45;;;3.95;;
76035;SDS011;64732;56.314;44.068;2023-04-20T06:08:04;8.55;;;3.70;;
76035;SDS011;64732;56.314;44.068;2023-04-20T06:10:25;9.77;;;3.97;;
76035;SDS011;64732;56.314;44.068;2023-04-20T06:12:46;9.68;;;4.15;;
76035;SDS011;64732;56.314;44.068;2023-04-20T06:15:08;11.95;;;4.57;;
76035;SDS011;64732;56.314;44.068;2023-04-20T06:17:29;11.63;;;4.07;;
76035;SDS011;64732;56.314;44.068;2023-04-20T06:19:53;5.85;;;3.50;;
76035;SDS011;64732;56.314;44.068;2023-04-20T06:22:14;11.52;;;4.10;;
76035;SDS011;64732;56.314;44.068;2023-04-20T06:24:36;11.05;;;3.63;;
76035;SDS011;64732;56.314;44.068;2023-04-20T06:27:00;8.98;;;3.97;;
76035;SDS011;64732;56.314;44.068;2023-04-20T06:29:21;12.40;;;4.50;;
76035;SDS011;64732;56.314;44.068;2023-04-20T06:31:42;11.88;;;4.40;;
76035;SDS011;64732;56.314;44.068;2023-04-20T06:34:03;7.28;;;3.22;;
76035;SDS011;64732;56.314;44.068;2023-04-20T06:36:27;9.13;;;2.97;;
76035;SDS011;64732;56.314;44.068;2023-04-20T06:38:48;10.35;;;3.20;;
76035;SDS011;64732;56.314;44.068;2023-04-20T06:41:09;8.07;;;2.90;;
76035;SDS011;64732;56.314;44.068;2023-04-20T06:43:30;7.50;;;3.13;;
76035;SDS011;64732;56.314;44.068;2023-04-20T06:45:50;12.13;;;3.63;;
76035;SDS011;64732;56.314;44.068;2023-04-20T06:48:12;6.97;;;2.80;;
76035;SDS011;64732;56.314;44.068;2023-04-20T06:50:33;9.95;;;3.22;;
76035;SDS011;64732;56.314;44.068;2023-04-20T06:52:56;4.40;;;2.47;;
76035;SDS011;64732;56.314;44.068;2023-04-20T06:55:17;6.22;;;2.60;;
76035;SDS011;64732;56.314;44.068;2023-04-20T06:57:38;6.82;;;2.92;;
76035;SDS011;64732;56.314;44.068;2023-04-20T06:59:59;8.35;;;2.60;;
76035;SDS011;64732;56.314;44.068;2023-04-20T07:02:21;5.50;;;2.97;;
76035;SDS011;64732;56.314;44.068;2023-04-20T07:04:44;6.10;;;2.58;;
76035;SDS011;64732;56.314;44.068;2023-04-20T07:07:05;7.65;;;2.58;;
76035;SDS011;64732;56.314;44.068;2023-04-20T07:09:29;4.95;;;2.75;;
76035;SDS011;64732;56.314;44.068;2023-04-20T07:11:50;5.72;;;2.60;;
76035;SDS011;64732;56.314;44.068;2023-04-20T07:14:11;5.57;;;2.58;;
76035;SDS011;64732;56.314;44.068;2023-04-20T07:16:32;9.55;;;2.85;;
76035;SDS011;64732;56.314;44.068;2023-04-20T07:18:53;9.38;;;2.92;;
76035;SDS011;64732;56.314;44.068;2023-04-20T07:21:14;6.85;;;2.70;;
76035;SDS011;64732;56.314;44.068;2023-04-20T07:23:35;7.88;;;2.00;;
76035;SDS011;64732;56.314;44.068;2023-04-20T07:26:01;7.45;;;3.13;;
76035;SDS011;64732;56.314;44.068;2023-04-20T07:28:22;5.20;;;1.58;;
76035;SDS011;64732;56.314;44.068;2023-04-20T07:30:43;5.72;;;2.00;;
76035;SDS011;64732;56.314;44.068;2023-04-20T07:33:05;3.55;;;2.03;;
76035;SDS011;64732;56.314;44.068;2023-04-20T07:35:26;8.07;;;2.05;;
76035;SDS011;64732;56.314;44.068;2023-04-20T07:37:47;9.80;;;2.00;;
76035;SDS011;64732;56.314;44.068;2023-04-20T07:40:08;5.65;;;1.70;;
76035;SDS011;64732;56.314;44.068;2023-04-20T07:42:33;5.90;;;2.10;;
76035;SDS011;64732;56.314;44.068;2023-04-20T07:44:54;8.40;;;1.73;;
76035;SDS011;64732;56.314;44.068;2023-04-20T07:47:15;17.90;;;2.20;;
76035;SDS011;64732;56.314;44.068;2023-04-20T07:49:36;6.22;;;1.73;;
76035;SDS011;64732;56.314;44.068;2023-04-20T07:51:57;3.63;;;1.60;;
76035;SDS011;64732;56.314;44.068;2023-04-20T07:54:18;3.67;;;1.67;;
76035;SDS011;64732;56.314;44.068;2023-04-20T07:56:39;5.30;;;1.60;;
76035;SDS011;64732;56.314;44.068;2023-04-20T07:59:03;4.20;;;1.60;;
76035;SDS011;64732;56.314;44.068;2023-04-20T08:01:24;3.72;;;1.20;;
76035;SDS011;64732;56.314;44.068;2023-04-20T08:03:45;5.82;;;1.83;;
76035;SDS011;64732;56.314;44.068;2023-04-20T08:06:06;4.22;;;1.73;;
76035;SDS011;64732;56.314;44.068;2023-04-20T08:08:28;7.47;;;2.05;;
76035;SDS011;64732;56.314;44.068;2023-04-20T08:10:49;3.65;;;1.35;;
76035;SDS011;64732;56.314;44.068;2023-04-20T08:13:10;5.45;;;1.50;;
76035;SDS011;64732;56.314;44.068;2023-04-20T08:15:34;3.92;;;1.17;;
76035;SDS011;64732;56.314;44.068;2023-04-20T08:17:55;4.72;;;1.55;;
76035;SDS011;64732;56.314;44.068;2023-04-20T08:20:18;4.20;;;1.40;;
76035;SDS011;64732;56.314;44.068;2023-04-20T08:22:40;6.43;;;2.67;;
76035;SDS011;64732;56.314;44.068;2023-04-20T08:25:01;4.30;;;1.40;;
76035;SDS011;64732;56.314;44.068;2023-04-20T08:27:28;5.47;;;1.73;;
76035;SDS011;64732;56.314;44.068;2023-04-20T08:29:49;6.15;;;1.50;;
76035;SDS011;64732;56.314;44.068;2023-04-20T08:32:13;4.05;;;1.30;;
76035;SDS011;64732;56.314;44.068;2023-04-20T08:34:34;5.03;;;1.73;;
76035;SDS011;64732;56.314;44.068;2023-04-20T08:36:57;4.97;;;1.60;;
76035;SDS011;64732;56.314;44.068;2023-04-20T08:39:18;7.80;;;1.83;;
76035;SDS011;64732;56.314;44.068;2023-04-20T08:41:40;6.20;;;2.03;;
76035;SDS011;64732;56.314;44.068;2023-04-20T08:44:01;4.88;;;1.45;;
76035;SDS011;64732;56.314;44.068;2023-04-20T08:46:23;6.82;;;1.85;;
76035;SDS011;64732;56.314;44.068;2023-04-20T08:48:47;6.15;;;1.50;;
76035;SDS011;64732;56.314;44.068;2023-04-20T08:51:08;6.32;;;1.40;;
76035;SDS011;64732;56.314;44.068;2023-04-20T08:53:29;5.88;;;1.35;;
76035;SDS011;64732;56.314;44.068;2023-04-20T08:55:50;3.78;;;1.42;;
76035;SDS011;64732;56.314;44.068;2023-04-20T08:58:11;4.43;;;1.45;;
76035;SDS011;64732;56.314;44.068;2023-04-20T09:00:32;6.45;;;2.10;;
76035;SDS011;64732;56.314;44.068;2023-04-20T09:02:54;4.93;;;1.63;;
76035;SDS011;64732;56.314;44.068;2023-04-20T09:05:26;3.28;;;1.83;;
76035;SDS011;64732;56.314;44.068;2023-04-20T09:07:51;4.80;;;1.50;;
76035;SDS011;64732;56.314;44.068;2023-04-20T09:10:12;5.90;;;1.67;;
76035;SDS011;64732;56.314;44.068;2023-04-20T09:12:39;9.13;;;1.88;;
76035;SDS011;64732;56.314;44.068;2023-04-20T09:15:01;5.78;;;1.70;;
76035;SDS011;64732;56.314;44.068;2023-04-20T09:17:32;7.15;;;1.77;;
76035;SDS011;64732;56.314;44.068;2023-04-20T09:19:53;3.97;;;1.33;;
76035;SDS011;64732;56.314;44.068;2023-04-20T09:22:27;3.28;;;1.48;;
76035;SDS011;64732;56.314;44.068;2023-04-20T09:24:49;4.78;;;1.60;;
76035;SDS011;64732;56.314;44.068;2023-04-20T09:27:16;4.13;;;1.75;;
76035;SDS011;64732;56.314;44.068;2023-04-20T09:29:37;4.00;;;1.52;;
76035;SDS011;64732;56.314;44.068;2023-04-20T09:31:58;5.82;;;1.75;;
76035;SDS011;64732;56.314;44.068;2023-04-20T09:34:20;5.03;;;1.55;;
76035;SDS011;64732;56.314;44.068;2023-04-20T09:36:41;3.17;;;1.65;;
76035;SDS011;64732;56.314;44.068;2023-04-20T09:39:06;3.10;;;1.35;;
76035;SDS011;64732;56.314;44.068;2023-04-20T09:41:28;4.55;;;1.35;;
76035;SDS011;64732;56.314;44.068;2023-04-20T09:43:50;4.43;;;1.40;;
76035;SDS011;64732;56.314;44.068;2023-04-20T09:46:11;5.47;;;1.52;;
76035;SDS011;64732;56.314;44.068;2023-04-20T09:48:34;4.75;;;1.48;;
76035;SDS011;64732;56.314;44.068;2023-04-20T09:50:55;5.90;;;1.65;;
76035;SDS011;64732;56.314;44.068;2023-04-20T09:53:16;6.30;;;1.35;;
76035;SDS011;64732;56.314;44.068;2023-04-20T09:55:44;8.32;;;1.77;;
76035;SDS011;64732;56.314;44.068;2023-04-20T09:58:07;7.18;;;1.63;;
76035;SDS011;64732;56.314;44.068;2023-04-20T10:00:28;4.97;;;1.70;;
76035;SDS011;64732;56.314;44.068;2023-04-20T10:02:49;9.93;;;2.03;;
76035;SDS011;64732;56.314;44.068;2023-04-20T10:05:10;5.60;;;1.55;;
76035;SDS011;64732;56.314;44.068;2023-04-20T10:07:31;4.78;;;1.52;;
76035;SDS011;64732;56.314;44.068;2023-04-20T10:10:06;8.70;;;1.60;;
76035;SDS011;64732;56.314;44.068;2023-04-20T10:12:45;3.70;;;1.42;;
76035;SDS011;64732;56.314;44.068;2023-04-20T10:15:08;3.53;;;1.65;;
76035;SDS011;64732;56.314;44.068;2023-04-20T10:17:30;5.50;;;1.50;;
76035;SDS011;64732;56.314;44.068;2023-04-20T10:19:51;3.08;;;1.50;;
76035;SDS011;64732;56.314;44.068;2023-04-20T10:22:23;6.00;;;1.60;;
76035;SDS011;64732;56.314;44.068;2023-04-20T10:24:45;3.35;;;1.95;;
76035;SDS011;64732;56.314;44.068;2023-04-20T10:27:15;3.45;;;1.42;;
76035;SDS011;64732;56.314;44.068;2023-04-20T10:29:39;4.78;;;1.65;;
76035;SDS011;64732;56.314;44.068;2023-04-20T10:32:01;5.07;;;1.80;;
76035;SDS011;64732;56.314;44.068;2023-04-20T10:34:29;3.05;;;1.52;;
76035;SDS011;64732;56.314;44.068;2023-04-20T10:36:50;4.03;;;1.50;;
76035;SDS011;64732;56.314;44.068;2023-04-20T10:39:12;3.88;;;1.30;;
76035;SDS011;64732;56.314;44.068;2023-04-20T10:41:34;4.22;;;1.70;;
76035;SDS011;64732;56.314;44.068;2023-04-20T10:44:05;6.57;;;2.47;;
76035;SDS011;64732;56.314;44.068;2023-04-20T10:46:29;3.40;;;1.65;;
76035;SDS011;64732;56.314;44.068;2023-04-20T10:48:50;5.03;;;1.55;;
76035;SDS011;64732;56.314;44.068;2023-04-20T10:51:12;7.63;;;1.80;;
76035;SDS011;64732;56.314;44.068;2023-04-20T10:53:33;3.10;;;1.55;;
76035;SDS011;64732;56.314;44.068;2023-04-20T10:55:57;4.22;;;1.50;;
76035;SDS011;64732;56.314;44.068;2023-04-20T10:58:20;4.13;;;1.73;;
76035;SDS011;64732;56.314;44.068;2023-04-20T11:00:41;4.88;;;1.80;;
76035;SDS011;64732;56.314;44.068;2023-04-20T11:03:05;4.95;;;1.80;;
76035;SDS011;64732;56.314;44.068;2023-04-20T11:05:26;4.47;;;1.90;;
76035;SDS011;64732;56.314;44.068;2023-04-20T11:07:51;5.90;;;1.55;;
76035;SDS011;64732;56.314;44.068;2023-04-20T11:10:12;7.78;;;1.77;;
76035;SDS011;64732;56.314;44.068;2023-04-20T11:12:37;4.18;;;1.80;;
76035;SDS011;64732;56.314;44.068;2023-04-20T11:14:58;6.03;;;2.50;;
76035;SDS011;64732;56.314;44.068;2023-04-20T11:17:19;11.65;;;2.13;;
76035;SDS011;64732;56.314;44.068;2023-04-20T11:19:43;3.90;;;1.83;;
76035;SDS011;64732;56.314;44.068;2023-04-20T11:22:04;4.80;;;1.35;;
76035;SDS011;64732;56.314;44.068;2023-04-20T11:24:25;5.00;;;1.38;;
76035;SDS011;64732;56.314;44.068;2023-04-20T11:26:47;3.53;;;1.58;;
76035;SDS011;64732;56.314;44.068;2023-04-20T11:29:09;8.07;;;1.67;;
76035;SDS011;64732;56.314;44.068;2023-04-20T11:31:30;3.58;;;1.50;;
76035;SDS011;64732;56.314;44.068;2023-04-20T11:33:51;5.22;;;1.67;;
76035;SDS011;64732;56.314;44.068;2023-04-20T11:36:20;4.28;;;1.50;;
76035;SDS011;64732;56.314;44.068;2023-04-20T11:38:42;4.78;;;1.60;;
76035;SDS011;64732;56.314;44.068;2023-04-20T11:41:03;5.13;;;1.75;;
76035;SDS011;64732;56.314;44.068;2023-04-20T11:43:24;5.57;;;1.73;;
76035;SDS011;64732;56.314;44.068;2023-04-20T11:45:46;3.78;;;1.65;;
76035;SDS011;64732;56.314;44.068;2023-04-20T11:48:07;9.30;;;2.03;;
76035;SDS011;64732;56.314;44.068;2023-04-20T11:50:28;5.18;;;1.73;;
76035;SDS011;64732;56.314;44.068;2023-04-20T11:52:51;4.63;;;1.63;;
76035;SDS011;64732;56.314;44.068;2023-04-20T11:55:12;3.22;;;1.50;;
76035;SDS011;64732;56.314;44.068;2023-04-20T11:57:33;5.13;;;1.48;;
76035;SDS011;64732;56.314;44.068;2023-04-20T11:59:55;4.28;;;1.80;;
76035;SDS011;64732;56.314;44.068;2023-04-20T12:02:16;3.22;;;1.48;;
76035;SDS011;64732;56.314;44.068;2023-04-20T12:04:39;6.70;;;1.58;;
76035;SDS011;64732;56.314;44.068;2023-04-20T12:07:00;5.47;;;1.50;;
76035;SDS011;64732;56.314;44.068;2023-04-20T12:09:24;5.07;;;1.60;;
76035;SDS011;64732;56.314;44.068;2023-04-20T12:11:45;4.95;;;1.58;;
76035;SDS011;64732;56.314;44.068;2023-04-20T12:14:06;11.57;;;2.30;;
76035;SDS011;64732;56.314;44.068;2023-04-20T12:16:27;6.05;;;2.05;;
76035;SDS011;64732;56.314;44.068;2023-04-20T12:18:49;4.75;;;1.73;;
76035;SDS011;64732;56.314;44.068;2023-04-20T12:21:10;8.10;;;2.05;;
76035;SDS011;64732;56.314;44.068;2023-04-20T12:23:31;2.97;;;1.60;;
76035;SDS011;64732;56.314;44.068;2023-04-20T12:25:55;4.35;;;1.80;;
76035;SDS011;64732;56.314;44.068;2023-04-20T12:28:15;4.97;;;1.92;;
76035;SDS011;64732;56.314;44.068;2023-04-20T12:30:40;6.10;;;1.60;;
76035;SDS011;64732;56.314;44.068;2023-04-20T12:33:01;6.50;;;1.52;;
76035;SDS011;64732;56.314;44.068;2023-04-20T12:35:23;8.27;;;1.73;;
76035;SDS011;64732;56.314;44.068;2023-04-20T12:37:44;8.73;;;2.70;;
76035;SDS011;64732;56.314;44.068;2023-04-20T12:40:06;5.13;;;1.73;;
76035;SDS011;64732;56.314;44.068;2023-04-20T12:42:30;7.50;;;1.90;;
76035;SDS011;64732;56.314;44.068;2023-04-20T12:44:51;4.68;;;1.70;;
76035;SDS011;64732;56.314;44.068;2023-04-20T12:47:12;3.28;;;1.50;;
76035;SDS011;64732;56.314;44.068;2023-04-20T12:49:33;6.53;;;2.00;;
76035;SDS011;64732;56.314;44.068;2023-04-20T12:51:54;5.38;;;1.73;;
76035;SDS011;64732;56.314;44.068;2023-04-20T12:54:15;3.88;;;1.75;;
76035;SDS011;64732;56.314;44.068;2023-04-20T12:56:36;3.78;;;1.50;;
76035;SDS011;64732;56.314;44.068;2023-04-20T12:59:00;4.28;;;1.67;;
76035;SDS011;64732;56.314;44.068;2023-04-20T13:01:21;5.90;;;1.88;;
76035;SDS011;64732;56.314;44.068;2023-04-20T13:03:42;4.10;;;1.80;;
76035;SDS011;64732;56.314;44.068;2023-04-20T13:06:03;9.40;;;1.88;;
76035;SDS011;64732;56.314;44.068;2023-04-20T13:08:25;5.45;;;2.40;;
76035;SDS011;64732;56.314;44.068;2023-04-20T13:10:46;5.00;;;1.38;;
76035;SDS011;64732;56.314;44.068;2023-04-20T13:13:07;3.90;;;1.58;;
76035;SDS011;64732;56.314;44.068;2023-04-20T13:15:31;6.28;;;1.83;;
76035;SDS011;64732;56.314;44.068;2023-04-20T13:17:52;6.55;;;1.92;;
76035;SDS011;64732;56.314;44.068;2023-04-20T13:20:13;9.40;;;2.42;;
76035;SDS011;64732;56.314;44.068;2023-04-20T13:22:34;11.43;;;1.83;;
76035;SDS011;64732;56.314;44.068;2023-04-20T13:24:56;6.20;;;2.00;;
76035;SDS011;64732;56.314;44.068;2023-04-20T13:27:17;4.25;;;1.60;;
76035;SDS011;64732;56.314;44.068;2023-04-20T13:29:38;6.18;;;1.60;;
76035;SDS011;64732;56.314;44.068;2023-04-20T13:32:02;8.68;;;1.70;;
76035;SDS011;64732;56.314;44.068;2023-04-20T13:34:23;5.43;;;1.80;;
76035;SDS011;64732;56.314;44.068;2023-04-20T13:36:44;7.00;;;1.83;;
76035;SDS011;64732;56.314;44.068;2023-04-20T13:39:05;6.20;;;1.88;;
76035;SDS011;64732;56.314;44.068;2023-04-20T13:41:26;7.93;;;1.77;;
76035;SDS011;64732;56.314;44.068;2023-04-20T13:43:49;5.63;;;1.80;;
76035;SDS011;64732;56.314;44.068;2023-04-20T13:46:10;7.78;;;1.88;;
76035;SDS011;64732;56.314;44.068;2023-04-20T13:48:34;8.93;;;1.80;;
76035;SDS011;64732;56.314;44.068;2023-04-20T13:50:55;5.53;;;1.55;;
76035;SDS011;64732;56.314;44.068;2023-04-20T13:53:16;3.63;;;1.48;;
76035;SDS011;64732;56.314;44.068;2023-04-20T13:55:37;6.05;;;1.70;;
76035;SDS011;64732;56.314;44.068;2023-04-20T13:57:58;6.05;;;1.80;;
76035;SDS011;64732;56.314;44.068;2023-04-20T14:00:19;4.90;;;1.95;;